Time;durP1;ratioP1;P1;durP2;ratioP2;P2;SDS_P1;SDS_P2;PMS_P1;PMS_P2;Temp;Humidity;BMP_temperature;BMP_pressure;BME280_temperature;BME280_humidity;BME280_pressure;Samples;Min_cycle;Max_cycle;Signal;HPM_P1;HPM_P2
2023/11/24 00:00:17;;;;;;;7.47;6.23;;;5.30;62.40;;;;;;5009971;28;20217;-64
2023/11/24 00:02:43;;;;;;;6.40;5.73;;;5.40;62.40;;;;;;5009387;28;20207;-62
2023/11/24 00:05:10;;;;;;;7.23;6.27;;;5.40;62.30;;;;;;5004658;28;20229;-65
2023/11/24 00:07:36;;;;;;;6.53;5.80;;;5.40;62.00;;;;;;5002990;28;20635;-64
2023/11/24 00:10:06;;;;;;;6.73;5.80;;;5.40;62.10;;;;;;5004272;28;20211;-65
2023/11/24 00:12:33;;;;;;;7.07;6.37;;;5.40;62.20;;;;;;5002884;28;20211;-65
2023/11/24 00:15:01;;;;;;;6.07;5.33;;;5.50;62.30;;;;;;5003795;28;20219;-65
2023/11/24 00:17:27;;;;;;;5.80;5.10;;;5.50;62.50;;;;;;5010599;28;20226;-65
2023/11/24 00:19:54;;;;;;;6.93;5.40;;;5.60;62.30;;;;;;5001188;28;20231;-65
2023/11/24 00:22:20;;;;;;;6.53;5.07;;;5.60;62.10;;;;;;5006808;28;20214;-65
2023/11/24 00:24:51;;;;;;;6.57;5.27;;;5.70;62.00;;;;;;5001438;28;20320;-65
2023/11/24 00:27:18;;;;;;;7.70;4.90;;;5.60;62.20;;;;;;5004751;28;20272;-65
2023/11/24 00:29:44;;;;;;;5.00;4.50;;;5.80;62.10;;;;;;5005907;28;20214;-64
2023/11/24 00:32:11;;;;;;;6.20;4.37;;;5.80;62.10;;;;;;5009055;28;20290;-65
2023/11/24 00:34:38;;;;;;;4.57;4.17;;;5.80;62.10;;;;;;5005280;28;20231;-64
2023/11/24 00:37:05;;;;;;;4.40;4.00;;;5.90;62.10;;;;;;5002745;28;20218;-64
2023/11/24 00:39:32;;;;;;;3.73;3.43;;;5.90;62.00;;;;;;5004106;28;20300;-63
2023/11/24 00:42:00;;;;;;;3.83;3.53;;;6.00;62.00;;;;;;5011568;28;20578;-64
2023/11/24 00:44:26;;;;;;;4.20;3.60;;;6.00;62.00;;;;;;5006114;28;20232;-64
2023/11/24 00:46:53;;;;;;;3.97;3.60;;;6.00;62.00;;;;;;5007313;28;20205;-65
2023/11/24 00:49:19;;;;;;;3.97;3.67;;;6.00;62.20;;;;;;5006491;28;20212;-65
2023/11/24 00:51:46;;;;;;;4.13;3.30;;;6.10;62.10;;;;;;5007771;28;20570;-65
2023/11/24 00:54:13;;;;;;;4.73;3.60;;;6.10;62.10;;;;;;5003253;28;20299;-65
2023/11/24 00:56:39;;;;;;;3.53;3.23;;;6.10;62.10;;;;;;5003284;28;20307;-65
2023/11/24 00:59:06;;;;;;;3.27;2.97;;;6.20;62.10;;;;;;5006551;28;20745;-65
2023/11/24 01:01:33;;;;;;;3.77;3.47;;;6.20;62.00;;;;;;5010104;28;20693;-65
2023/11/24 01:04:01;;;;;;;3.50;3.20;;;6.20;61.80;;;;;;5004735;28;20205;-65
2023/11/24 01:06:28;;;;;;;3.47;3.17;;;6.20;62.00;;;;;;5005862;28;20220;-65
2023/11/24 01:08:54;;;;;;;3.80;3.50;;;6.20;61.90;;;;;;5006166;28;20226;-65
2023/11/24 01:11:21;;;;;;;3.77;3.47;;;6.20;62.40;;;;;;5003973;28;20618;-65
2023/11/24 01:13:47;;;;;;;3.50;3.20;;;6.10;62.40;;;;;;5005253;28;20221;-66
2023/11/24 01:16:14;;;;;;;4.10;3.50;;;6.30;62.30;;;;;;5001766;28;20229;-65
2023/11/24 01:18:41;;;;;;;3.23;2.93;;;6.30;62.00;;;;;;5009930;28;20203;-65
2023/11/24 01:21:07;;;;;;;3.50;3.20;;;6.30;62.00;;;;;;5006151;28;20211;-65
2023/11/24 01:23:35;;;;;;;3.67;3.00;;;6.30;61.80;;;;;;5008485;28;20209;-65
2023/11/24 01:26:01;;;;;;;3.43;3.20;;;6.20;61.80;;;;;;5006128;28;20808;-65
2023/11/24 01:28:28;;;;;;;3.77;3.43;;;6.20;61.60;;;;;;4999599;28;20679;-65
2023/11/24 01:30:54;;;;;;;4.43;4.03;;;6.20;61.60;;;;;;5009542;28;20298;-65
2023/11/24 01:33:20;;;;;;;4.37;4.03;;;6.30;61.80;;;;;;5010470;28;20230;-65
2023/11/24 01:35:49;;;;;;;3.93;3.50;;;6.30;61.70;;;;;;5003793;28;20230;-65
2023/11/24 01:38:15;;;;;;;3.47;3.27;;;6.30;61.90;;;;;;5003971;28;20623;-64
2023/11/24 01:40:42;;;;;;;3.43;3.10;;;6.30;61.60;;;;;;5007428;28;20208;-65
2023/11/24 01:43:08;;;;;;;3.67;3.37;;;6.40;61.80;;;;;;5011669;28;20574;-65
2023/11/24 01:45:35;;;;;;;3.57;3.27;;;6.40;62.10;;;;;;5007863;28;20319;-65
2023/11/24 01:48:01;;;;;;;5.00;3.43;;;6.40;62.40;;;;;;5008316;28;20225;-65
2023/11/24 01:50:28;;;;;;;3.50;3.20;;;6.50;62.70;;;;;;5005444;28;20204;-65
2023/11/24 01:52:54;;;;;;;3.60;3.30;;;6.50;62.60;;;;;;5009323;28;20213;-65
2023/11/24 01:55:23;;;;;;;3.97;3.77;;;6.60;62.90;;;;;;5003885;28;20597;-65
2023/11/24 01:57:49;;;;;;;3.50;3.20;;;6.60;62.70;;;;;;5009480;28;20208;-65
2023/11/24 02:00:18;;;;;;;3.73;3.17;;;6.60;62.90;;;;;;5006426;28;20226;-64
2023/11/24 02:02:44;;;;;;;3.53;3.23;;;6.70;62.70;;;;;;5008632;28;20291;-64
2023/11/24 02:05:11;;;;;;;2.90;2.70;;;6.70;62.80;;;;;;5007932;28;20316;-65
2023/11/24 02:07:38;;;;;;;3.10;2.90;;;6.70;62.70;;;;;;5009016;28;20564;-65
2023/11/24 02:10:04;;;;;;;3.47;3.17;;;6.70;62.80;;;;;;5012766;28;20689;-64
2023/11/24 02:12:31;;;;;;;3.43;3.20;;;6.70;62.80;;;;;;5011100;28;20209;-63
2023/11/24 02:14:57;;;;;;;3.40;3.20;;;6.60;62.60;;;;;;5008617;28;20291;-64
2023/11/24 02:17:24;;;;;;;3.90;3.50;;;6.60;62.70;;;;;;5005496;28;20210;-65
2023/11/24 02:19:49;;;;;;;4.23;3.90;;;6.60;62.70;;;;;;5000768;28;20216;-65
2023/11/24 02:22:16;;;;;;;3.20;3.00;;;6.60;62.90;;;;;;5002529;28;20519;-65
2023/11/24 02:24:42;;;;;;;3.40;3.13;;;6.60;62.80;;;;;;5010090;28;20227;-65
2023/11/24 02:27:09;;;;;;;3.60;3.30;;;6.60;62.70;;;;;;5003750;28;20656;-65
2023/11/24 02:29:35;;;;;;;4.07;3.13;;;6.50;63.20;;;;;;5002678;28;20283;-65
2023/11/24 02:32:02;;;;;;;3.70;3.40;;;6.40;62.90;;;;;;5003896;28;20299;-65
2023/11/24 02:34:31;;;;;;;3.90;3.60;;;6.40;63.30;;;;;;5010186;28;20204;-65
2023/11/24 02:36:57;;;;;;;3.60;3.40;;;6.50;63.10;;;;;;5003768;28;20211;-65
2023/11/24 02:39:24;;;;;;;3.53;3.23;;;6.40;63.50;;;;;;5004547;28;20202;-65
2023/11/24 02:41:50;;;;;;;3.87;3.57;;;6.40;63.40;;;;;;5008862;28;20213;-64
2023/11/24 02:44:17;;;;;;;4.40;4.00;;;6.40;63.50;;;;;;5009575;28;20248;-65
2023/11/24 02:46:43;;;;;;;5.33;3.90;;;6.40;63.80;;;;;;5008349;28;20208;-65
2023/11/24 02:49:12;;;;;;;4.20;3.90;;;6.40;64.60;;;;;;5006573;28;20844;-65
2023/11/24 02:51:39;;;;;;;4.07;3.70;;;6.30;64.90;;;;;;5006966;28;20296;-65
2023/11/24 02:54:06;;;;;;;4.17;3.87;;;6.30;65.50;;;;;;5004782;28;20212;-65
2023/11/24 02:56:33;;;;;;;5.07;4.67;;;6.30;65.90;;;;;;5002720;28;20237;-65
2023/11/24 02:58:59;;;;;;;3.90;3.50;;;6.30;66.60;;;;;;5011719;28;20282;-65
2023/11/24 03:01:25;;;;;;;4.77;4.30;;;6.30;68.40;;;;;;5008637;28;20203;-65
2023/11/24 03:03:52;;;;;;;4.10;3.80;;;6.20;68.70;;;;;;5010657;28;20213;-65
2023/11/24 03:06:19;;;;;;;4.07;3.67;;;6.20;69.20;;;;;;5004476;28;20235;-65
2023/11/24 03:08:45;;;;;;;4.37;4.00;;;6.20;69.40;;;;;;5005440;28;20224;-64
2023/11/24 03:11:12;;;;;;;4.70;4.20;;;6.20;70.40;;;;;;5007314;28;20323;-65
2023/11/24 03:13:38;;;;;;;4.73;4.33;;;6.20;70.10;;;;;;5008222;28;20208;-65
2023/11/24 03:16:05;;;;;;;4.60;4.17;;;6.20;70.40;;;;;;5010661;28;20832;-65
2023/11/24 03:18:32;;;;;;;4.60;4.20;;;6.30;70.10;;;;;;5005269;28;20293;-65
2023/11/24 03:20:58;;;;;;;5.10;4.70;;;6.20;70.40;;;;;;5007726;28;20307;-65
2023/11/24 03:23:25;;;;;;;4.70;4.20;;;6.30;70.00;;;;;;5001908;28;20300;-65
2023/11/24 03:25:51;;;;;;;5.00;4.50;;;6.30;70.00;;;;;;5009587;28;20231;-65
2023/11/24 03:28:18;;;;;;;5.37;4.87;;;6.30;69.30;;;;;;5008304;28;20227;-65
2023/11/24 03:30:46;;;;;;;4.43;4.03;;;6.30;69.30;;;;;;5010519;28;20208;-65
2023/11/24 03:33:12;;;;;;;5.70;5.10;;;6.30;69.30;;;;;;5006383;28;20242;-65
2023/11/24 03:35:39;;;;;;;4.30;3.90;;;6.40;69.30;;;;;;5007814;28;20231;-65
2023/11/24 03:38:05;;;;;;;4.70;4.30;;;6.40;68.80;;;;;;5004644;28;20239;-65
2023/11/24 03:40:32;;;;;;;4.97;4.57;;;6.40;68.90;;;;;;5010228;28;20311;-65
2023/11/24 03:43:00;;;;;;;4.50;4.10;;;6.40;69.10;;;;;;5002397;28;20199;-65
2023/11/24 03:45:27;;;;;;;4.63;4.23;;;6.40;69.00;;;;;;5005011;28;20240;-66
2023/11/24 03:47:53;;;;;;;4.27;3.97;;;6.50;69.40;;;;;;5005456;28;20228;-64
2023/11/24 03:50:19;;;;;;;4.30;4.00;;;6.50;68.50;;;;;;5010607;28;20207;-64
2023/11/24 03:52:46;;;;;;;4.77;4.20;;;6.50;68.80;;;;;;4998058;28;20235;-65
2023/11/24 03:55:13;;;;;;;4.20;3.80;;;6.60;68.60;;;;;;5008044;28;20258;-64
2023/11/24 03:57:40;;;;;;;3.90;3.37;;;6.60;68.30;;;;;;5004915;28;20287;-64
2023/11/24 04:00:07;;;;;;;4.10;3.77;;;6.60;68.40;;;;;;5007328;28;20201;-64
2023/11/24 04:02:34;;;;;;;3.80;3.50;;;6.60;68.50;;;;;;5004192;28;20292;-65
2023/11/24 04:05:00;;;;;;;3.67;3.37;;;6.60;68.20;;;;;;5003728;28;20597;-65
2023/11/24 04:07:26;;;;;;;4.00;3.60;;;6.70;67.90;;;;;;5001184;28;20204;-65
2023/11/24 04:09:53;;;;;;;3.93;3.60;;;6.60;67.80;;;;;;5008112;28;20326;-65
2023/11/24 04:12:20;;;;;;;3.60;3.30;;;6.70;68.00;;;;;;5007934;28;20218;-65
2023/11/24 04:14:46;;;;;;;3.70;3.40;;;6.60;67.90;;;;;;5012586;28;20229;-65
2023/11/24 04:17:13;;;;;;;4.00;3.70;;;6.60;67.90;;;;;;5012869;28;20210;-65
2023/11/24 04:19:39;;;;;;;3.70;3.20;;;6.70;67.60;;;;;;5006140;28;20290;-65
2023/11/24 04:22:06;;;;;;;3.37;3.07;;;6.70;67.80;;;;;;5008021;28;20216;-65
2023/11/24 04:24:32;;;;;;;3.73;3.43;;;6.70;67.90;;;;;;5002544;28;20204;-64
2023/11/24 04:26:59;;;;;;;3.20;3.00;;;6.70;67.50;;;;;;5011575;28;20209;-65
2023/11/24 04:29:26;;;;;;;3.70;3.40;;;6.80;67.80;;;;;;5007809;28;20239;-66
2023/11/24 04:31:52;;;;;;;3.93;3.60;;;6.80;68.20;;;;;;5013680;28;20697;-65
2023/11/24 04:34:18;;;;;;;3.57;3.27;;;6.80;68.70;;;;;;5007118;28;20301;-65
2023/11/24 04:36:45;;;;;;;3.50;3.20;;;6.70;68.80;;;;;;5012767;28;20208;-65
2023/11/24 04:39:15;;;;;;;3.13;2.93;;;6.70;69.60;;;;;;5014405;28;20590;-65
2023/11/24 04:41:41;;;;;;;3.20;2.97;;;6.70;69.70;;;;;;5010357;28;20216;-64
2023/11/24 04:44:09;;;;;;;3.20;3.00;;;6.70;69.70;;;;;;5004850;28;20218;-65
2023/11/24 04:46:35;;;;;;;3.13;2.93;;;6.70;69.90;;;;;;5011387;28;20292;-64
2023/11/24 04:49:03;;;;;;;3.07;2.73;;;6.70;69.70;;;;;;5006507;28;20311;-65
2023/11/24 04:51:31;;;;;;;3.40;3.20;;;6.70;69.70;;;;;;5005650;28;20582;-64
2023/11/24 04:53:58;;;;;;;3.07;2.87;;;6.70;68.90;;;;;;5011576;28;20307;-64
2023/11/24 04:56:25;;;;;;;3.10;2.90;;;6.70;69.20;;;;;;5005864;28;20704;-65
2023/11/24 04:58:51;;;;;;;2.57;2.47;;;6.70;68.90;;;;;;5010853;28;20198;-66
2023/11/24 05:01:18;;;;;;;3.23;2.93;;;6.80;69.10;;;;;;5009174;28;20779;-65
2023/11/24 05:03:48;;;;;;;2.87;2.67;;;6.80;68.70;;;;;;5010572;28;20200;-65
2023/11/24 05:06:14;;;;;;;2.83;2.67;;;6.80;69.00;;;;;;5007397;28;20283;-65
2023/11/24 05:08:41;;;;;;;3.03;2.83;;;6.70;69.20;;;;;;5006030;28;20724;-65
2023/11/24 05:11:07;;;;;;;2.57;2.37;;;6.70;69.10;;;;;;5004181;28;20209;-65
2023/11/24 05:13:34;;;;;;;2.80;2.60;;;6.80;68.30;;;;;;5012145;28;20200;-65
2023/11/24 05:16:00;;;;;;;2.80;2.60;;;6.80;68.30;;;;;;5007013;28;20698;-66
2023/11/24 05:18:26;;;;;;;2.60;2.40;;;6.70;68.30;;;;;;5005885;28;20219;-65
2023/11/24 05:20:53;;;;;;;2.50;2.30;;;6.70;68.30;;;;;;5012139;28;20294;-64
2023/11/24 05:23:19;;;;;;;3.03;2.60;;;6.80;68.00;;;;;;5004648;28;20251;-65
2023/11/24 05:25:46;;;;;;;2.93;2.73;;;6.80;67.60;;;;;;4996198;28;20324;-65
2023/11/24 05:28:12;;;;;;;3.23;2.90;;;6.70;67.80;;;;;;5009869;28;20226;-65
2023/11/24 05:30:39;;;;;;;3.90;2.77;;;6.60;68.00;;;;;;5007535;28;20215;-65
2023/11/24 05:33:06;;;;;;;3.10;2.80;;;6.70;68.10;;;;;;5001178;28;20213;-64
2023/11/24 05:35:32;;;;;;;2.60;2.40;;;6.80;67.90;;;;;;5005085;28;20236;-65
2023/11/24 05:37:59;;;;;;;3.10;2.90;;;6.70;67.90;;;;;;5004474;28;20589;-65
2023/11/24 05:40:25;;;;;;;3.23;2.97;;;6.70;67.60;;;;;;5005186;28;20197;-66
2023/11/24 05:42:52;;;;;;;2.80;2.60;;;6.80;67.50;;;;;;5005845;28;20209;-64
2023/11/24 05:45:18;;;;;;;2.90;2.70;;;6.80;67.30;;;;;;5009344;28;20294;-64
2023/11/24 05:47:45;;;;;;;3.07;2.87;;;6.80;67.10;;;;;;5011443;28;20219;-65
2023/11/24 05:50:17;;;;;;;3.17;2.97;;;6.80;67.30;;;;;;5010212;28;20307;-65
2023/11/24 05:52:44;;;;;;;3.03;2.83;;;6.80;66.90;;;;;;5003598;28;20244;-65
2023/11/24 05:55:10;;;;;;;3.00;2.80;;;6.90;66.60;;;;;;5004112;28;20225;-63
2023/11/24 05:57:37;;;;;;;3.43;3.20;;;7.00;66.30;;;;;;5009141;28;20292;-65
2023/11/24 06:00:08;;;;;;;3.30;3.00;;;7.00;66.10;;;;;;5004940;28;20241;-65
2023/11/24 06:02:34;;;;;;;3.63;3.33;;;6.90;66.10;;;;;;5004389;28;20244;-65
2023/11/24 06:05:01;;;;;;;3.20;3.00;;;6.90;66.30;;;;;;5004190;28;20225;-66
2023/11/24 06:07:27;;;;;;;3.17;2.97;;;7.00;66.00;;;;;;5008766;28;20211;-64
2023/11/24 06:09:54;;;;;;;3.67;3.00;;;7.00;65.80;;;;;;5005853;28;20328;-65
2023/11/24 06:12:21;;;;;;;3.53;3.23;;;7.00;65.80;;;;;;5002381;28;20215;-66
2023/11/24 06:14:48;;;;;;;4.13;3.73;;;7.00;65.40;;;;;;5000120;28;20251;-66
2023/11/24 06:17:14;;;;;;;3.10;2.90;;;7.00;65.70;;;;;;5000822;28;20205;-66
2023/11/24 06:19:41;;;;;;;3.37;3.17;;;7.00;65.40;;;;;;5010499;28;20215;-65
2023/11/24 06:22:07;;;;;;;4.30;3.30;;;7.10;65.50;;;;;;5007232;28;20305;-66
2023/11/24 06:24:34;;;;;;;3.80;3.50;;;7.10;65.50;;;;;;5002440;28;20238;-65
2023/11/24 06:27:00;;;;;;;11.60;4.17;;;7.10;65.50;;;;;;5005346;28;20213;-64
2023/11/24 06:29:27;;;;;;;4.53;3.50;;;7.10;65.60;;;;;;5002194;28;20221;-65
2023/11/24 06:31:53;;;;;;;3.60;3.30;;;7.10;65.80;;;;;;5003703;28;20312;-65
2023/11/24 06:34:20;;;;;;;3.60;3.30;;;7.10;66.00;;;;;;5009699;28;20297;-65
2023/11/24 06:36:49;;;;;;;4.03;3.60;;;7.10;66.00;;;;;;5003596;28;20203;-64
2023/11/24 06:39:19;;;;;;;3.40;3.10;;;7.10;65.90;;;;;;5006612;28;20203;-65
2023/11/24 06:41:46;;;;;;;3.47;3.17;;;7.20;65.90;;;;;;5002245;28;20694;-64
2023/11/24 06:44:12;;;;;;;4.27;3.77;;;7.20;66.00;;;;;;5005311;28;20288;-65
2023/11/24 06:46:39;;;;;;;3.87;3.57;;;7.20;66.00;;;;;;5009477;28;20320;-65
2023/11/24 06:49:06;;;;;;;4.07;3.67;;;7.20;66.30;;;;;;5005509;28;20311;-63
2023/11/24 06:51:33;;;;;;;4.37;3.77;;;7.20;66.60;;;;;;5004684;28;20820;-65
2023/11/24 06:53:59;;;;;;;3.87;3.57;;;7.10;67.30;;;;;;5005607;28;20219;-65
2023/11/24 06:56:29;;;;;;;4.53;3.53;;;7.20;67.10;;;;;;5006878;28;20232;-64
2023/11/24 06:58:55;;;;;;;4.23;3.83;;;7.20;67.50;;;;;;5006482;28;20272;-67
2023/11/24 07:01:22;;;;;;;3.83;3.53;;;7.20;67.80;;;;;;5004275;28;20285;-64
2023/11/24 07:03:48;;;;;;;4.10;3.73;;;7.20;68.10;;;;;;5003086;28;20214;-65
2023/11/24 07:06:15;;;;;;;4.63;4.00;;;7.10;69.70;;;;;;5006759;28;20246;-65
2023/11/24 07:08:42;;;;;;;4.23;3.83;;;7.10;70.00;;;;;;5008117;28;20236;-65
2023/11/24 07:11:08;;;;;;;4.50;3.70;;;7.20;70.70;;;;;;4994291;28;20205;-66
2023/11/24 07:13:35;;;;;;;4.37;3.97;;;7.20;69.90;;;;;;5001972;28;20206;-64
2023/11/24 07:16:01;;;;;;;4.60;4.20;;;7.10;69.80;;;;;;5002932;28;20645;-65
2023/11/24 07:18:28;;;;;;;5.47;4.30;;;7.10;70.00;;;;;;5003932;28;20269;-64
2023/11/24 07:20:54;;;;;;;4.83;4.20;;;7.10;69.70;;;;;;5000919;28;20216;-64
2023/11/24 07:23:21;;;;;;;4.80;4.40;;;7.20;69.10;;;;;;5006125;28;20212;-65
2023/11/24 07:25:47;;;;;;;4.73;4.07;;;7.30;69.00;;;;;;5009255;28;20236;-64
2023/11/24 07:28:14;;;;;;;6.43;4.03;;;7.20;70.50;;;;;;5014744;28;20296;-64
2023/11/24 07:30:42;;;;;;;3.47;3.03;;;7.00;69.70;;;;;;5006842;28;20479;-63
2023/11/24 07:33:09;;;;;;;3.50;3.17;;;6.70;68.90;;;;;;5005412;28;20205;-65
2023/11/24 07:35:35;;;;;;;3.67;2.50;;;6.50;70.70;;;;;;5004703;28;20230;-64
2023/11/24 07:38:02;;;;;;;3.97;2.90;;;6.30;71.20;;;;;;5004291;28;20211;-64
2023/11/24 07:40:30;;;;;;;2.77;2.50;;;6.20;72.20;;;;;;5007413;28;20211;-65
2023/11/24 07:42:56;;;;;;;2.90;2.60;;;6.10;71.80;;;;;;5007287;28;20213;-64
2023/11/24 07:45:23;;;;;;;3.60;2.50;;;6.10;71.30;;;;;;5004476;28;20229;-64
2023/11/24 07:47:49;;;;;;;3.13;2.57;;;6.00;73.70;;;;;;5003546;28;20223;-65
2023/11/24 07:50:17;;;;;;;4.00;2.40;;;5.90;73.30;;;;;;5002233;28;20224;-65
2023/11/24 07:52:44;;;;;;;5.73;2.20;;;6.00;72.70;;;;;;5006714;28;20204;-65
2023/11/24 07:55:13;;;;;;;6.07;2.57;;;5.80;72.20;;;;;;4999759;28;20778;-65
2023/11/24 07:57:39;;;;;;;3.97;2.37;;;5.80;73.30;;;;;;5009060;28;20212;-65
2023/11/24 08:00:09;;;;;;;4.27;2.40;;;5.70;73.30;;;;;;5008182;28;20211;-65
2023/11/24 08:02:37;;;;;;;2.90;2.60;;;5.80;72.80;;;;;;5005549;28;20287;-65
2023/11/24 08:05:03;;;;;;;7.87;2.93;;;5.70;73.30;;;;;;5010825;28;20309;-64
2023/11/24 08:07:29;;;;;;;4.63;3.00;;;5.60;73.90;;;;;;5007297;28;20219;-65
2023/11/24 08:09:56;;;;;;;3.00;2.70;;;5.60;74.50;;;;;;4998417;28;20296;-65
2023/11/24 08:12:22;;;;;;;6.47;2.70;;;5.50;73.60;;;;;;5002740;28;20290;-65
2023/11/24 08:14:50;;;;;;;3.87;3.03;;;5.50;76.10;;;;;;5004028;28;20370;-64
2023/11/24 08:17:17;;;;;;;3.40;3.10;;;5.50;75.60;;;;;;5001397;28;20212;-68
2023/11/24 08:19:42;;;;;;;6.17;2.47;;;5.40;74.50;;;;;;5002969;28;20211;-68
2023/11/24 08:22:09;;;;;;;6.90;2.80;;;5.40;75.30;;;;;;5007412;28;20213;-65
2023/11/24 08:24:36;;;;;;;2.87;2.10;;;5.50;76.40;;;;;;5007983;28;20219;-68
2023/11/24 08:27:02;;;;;;;3.00;2.20;;;5.50;76.40;;;;;;5007331;28;20223;-67
2023/11/24 08:29:30;;;;;;;2.33;2.13;;;5.50;75.70;;;;;;5003773;28;20782;-65
2023/11/24 08:31:57;;;;;;;2.77;2.17;;;5.50;75.80;;;;;;5004057;28;20215;-67
2023/11/24 08:34:24;;;;;;;2.93;2.53;;;5.60;76.00;;;;;;5001727;28;20244;-67
2023/11/24 08:36:50;;;;;;;3.77;2.50;;;5.50;75.70;;;;;;5005634;28;20316;-66
2023/11/24 08:39:17;;;;;;;2.60;2.40;;;5.50;76.40;;;;;;5007761;28;20250;-67
2023/11/24 08:41:44;;;;;;;2.50;2.30;;;5.60;75.50;;;;;;5008231;28;20208;-67
2023/11/24 08:44:12;;;;;;;3.23;2.40;;;5.50;75.20;;;;;;5004637;28;20277;-67
2023/11/24 08:46:38;;;;;;;3.60;2.23;;;5.70;75.70;;;;;;5007992;28;20310;-66
2023/11/24 08:49:05;;;;;;;2.77;2.10;;;5.70;73.60;;;;;;5003443;28;20231;-66
2023/11/24 08:51:32;;;;;;;2.53;2.30;;;5.60;74.90;;;;;;5001153;28;20200;-67
2023/11/24 08:53:59;;;;;;;3.93;2.43;;;5.60;75.00;;;;;;5008167;28;20294;-67
2023/11/24 08:56:26;;;;;;;4.13;2.30;;;5.60;74.30;;;;;;5003083;28;20248;-67
2023/11/24 08:58:53;;;;;;;2.97;2.27;;;5.60;75.00;;;;;;5008574;28;20229;-68
2023/11/24 09:01:19;;;;;;;5.23;2.47;;;5.70;74.70;;;;;;5005586;28;20308;-67
2023/11/24 09:03:46;;;;;;;3.03;2.53;;;5.70;74.80;;;;;;5007004;28;20215;-68
2023/11/24 09:06:13;;;;;;;3.30;2.20;;;5.50;74.50;;;;;;5008642;28;20229;-67
2023/11/24 09:08:40;;;;;;;3.53;2.13;;;5.50;75.00;;;;;;4978682;28;20226;-67
2023/11/24 09:11:07;;;;;;;5.57;2.60;;;5.50;75.80;;;;;;5016012;28;20232;-67
2023/11/24 09:13:34;;;;;;;3.17;2.10;;;5.50;76.20;;;;;;5006495;28;20227;-67
2023/11/24 09:16:00;;;;;;;2.83;2.27;;;5.50;76.30;;;;;;4994666;28;20741;-68
2023/11/24 09:18:28;;;;;;;4.27;2.27;;;5.70;76.50;;;;;;4984945;28;20755;-68
2023/11/24 09:20:55;;;;;;;5.17;2.40;;;5.50;75.00;;;;;;4997331;28;20215;-66
2023/11/24 09:23:21;;;;;;;3.43;2.20;;;5.60;76.50;;;;;;4986916;28;20211;-68
2023/11/24 09:25:48;;;;;;;3.93;2.40;;;5.60;75.40;;;;;;5002317;28;20672;-66
2023/11/24 09:28:16;;;;;;;4.60;2.57;;;5.60;75.30;;;;;;5003019;28;20229;-67
2023/11/24 09:30:42;;;;;;;6.20;3.00;;;5.50;75.10;;;;;;5000907;28;20613;-66
2023/11/24 09:33:09;;;;;;;6.07;2.90;;;5.50;75.70;;;;;;5008428;28;20205;-67
2023/11/24 09:35:35;;;;;;;7.93;2.93;;;5.50;77.20;;;;;;5010384;28;20317;-66
2023/11/24 09:38:02;;;;;;;4.10;2.80;;;5.50;75.80;;;;;;5008503;28;20217;-66
2023/11/24 09:40:30;;;;;;;7.03;2.70;;;5.30;73.90;;;;;;5010203;28;20211;-68
2023/11/24 09:43:01;;;;;;;6.43;2.57;;;5.30;76.30;;;;;;5005008;28;20303;-67
2023/11/24 09:45:28;;;;;;;4.10;2.47;;;5.20;77.00;;;;;;5001089;28;20278;-66
2023/11/24 09:47:54;;;;;;;4.20;2.50;;;5.20;74.50;;;;;;5002198;28;20215;-67
2023/11/24 09:50:23;;;;;;;5.60;3.10;;;5.10;74.70;;;;;;4983205;28;20340;-66
2023/11/24 09:52:50;;;;;;;4.60;2.67;;;5.20;74.70;;;;;;4998881;28;20696;-67
2023/11/24 09:55:16;;;;;;;4.33;2.97;;;5.20;75.50;;;;;;5000698;28;20706;-67
2023/11/24 09:57:43;;;;;;;6.30;2.93;;;5.10;75.50;;;;;;5002921;28;20700;-67
2023/11/24 10:00:10;;;;;;;5.30;2.73;;;5.10;75.80;;;;;;4990503;28;20211;-66
2023/11/24 10:02:36;;;;;;;5.40;2.90;;;5.10;75.30;;;;;;5003527;28;20236;-64
2023/11/24 10:05:03;;;;;;;6.47;2.80;;;5.10;75.00;;;;;;5003029;28;20315;-64
2023/11/24 10:07:30;;;;;;;5.83;3.13;;;5.10;76.20;;;;;;5003944;28;20213;-64
2023/11/24 10:09:56;;;;;;;7.03;2.40;;;5.10;77.20;;;;;;5005776;28;20223;-64
2023/11/24 10:12:23;;;;;;;8.87;2.90;;;5.10;75.60;;;;;;5008509;28;20696;-63
2023/11/24 10:14:49;;;;;;;7.13;2.83;;;5.00;74.90;;;;;;5003512;28;20231;-63
2023/11/24 10:17:16;;;;;;;5.17;2.63;;;5.00;75.70;;;;;;5001502;28;20632;-63
2023/11/24 10:19:43;;;;;;;5.90;2.67;;;4.90;75.90;;;;;;5008885;28;20212;-64
2023/11/24 10:22:09;;;;;;;3.90;2.60;;;4.90;76.20;;;;;;4999526;28;21026;-64
2023/11/24 10:24:37;;;;;;;4.03;2.93;;;4.90;75.40;;;;;;4996420;28;20216;-64
2023/11/24 10:27:05;;;;;;;6.17;2.70;;;5.00;77.10;;;;;;4966777;28;20622;-63
2023/11/24 10:29:32;;;;;;;3.63;2.47;;;4.90;74.70;;;;;;4994760;28;20243;-64
2023/11/24 10:31:58;;;;;;;2.83;2.37;;;4.90;75.60;;;;;;4990182;28;20212;-64
2023/11/24 10:34:25;;;;;;;3.07;2.60;;;4.90;75.30;;;;;;5005353;28;22739;-63
2023/11/24 10:36:52;;;;;;;4.63;3.20;;;4.90;74.40;;;;;;4998281;28;20210;-63
2023/11/24 10:39:18;;;;;;;4.07;2.57;;;4.80;75.00;;;;;;5001211;28;20650;-63
2023/11/24 10:41:46;;;;;;;6.50;2.60;;;4.80;75.60;;;;;;5005188;28;20213;-63
2023/11/24 10:44:13;;;;;;;2.83;2.33;;;4.80;74.90;;;;;;4995334;28;20203;-63
2023/11/24 10:46:40;;;;;;;3.57;2.60;;;4.80;76.10;;;;;;5002635;28;20238;-63
2023/11/24 10:49:07;;;;;;;3.87;2.47;;;4.90;76.40;;;;;;5006681;28;20266;-64
2023/11/24 10:51:34;;;;;;;6.13;2.70;;;4.90;76.30;;;;;;5002792;28;20262;-64
2023/11/24 10:54:00;;;;;;;6.87;2.50;;;5.00;76.00;;;;;;5003790;28;20199;-63
2023/11/24 10:56:27;;;;;;;5.20;2.47;;;5.00;75.20;;;;;;5010727;28;20406;-63
2023/11/24 10:58:54;;;;;;;6.50;4.00;;;5.00;76.60;;;;;;5001530;28;20230;-63
2023/11/24 11:01:22;;;;;;;3.20;2.17;;;4.90;76.30;;;;;;5005345;28;20205;-61
2023/11/24 11:03:48;;;;;;;4.17;2.20;;;4.80;75.80;;;;;;4993228;28;20758;-63
2023/11/24 11:06:15;;;;;;;2.80;2.30;;;4.80;75.90;;;;;;5002922;28;20229;-64
2023/11/24 11:08:41;;;;;;;2.73;2.03;;;4.70;76.40;;;;;;5003097;28;20287;-64
2023/11/24 11:11:12;;;;;;;3.57;2.00;;;4.80;76.10;;;;;;5004081;28;20358;-63
2023/11/24 11:13:38;;;;;;;2.30;2.10;;;4.80;76.10;;;;;;5003487;28;20239;-63
2023/11/24 11:16:05;;;;;;;3.07;2.30;;;5.00;75.90;;;;;;5005567;28;20226;-64
2023/11/24 11:18:33;;;;;;;2.50;2.30;;;4.90;75.10;;;;;;5004921;28;20208;-64
2023/11/24 11:20:59;;;;;;;2.90;2.70;;;5.00;76.10;;;;;;5006691;28;20208;-63
2023/11/24 11:23:26;;;;;;;2.40;2.20;;;5.00;75.70;;;;;;4995537;28;20208;-64
2023/11/24 11:25:54;;;;;;;3.23;2.40;;;5.10;75.40;;;;;;5002105;28;20263;-63
2023/11/24 11:28:19;;;;;;;2.60;2.40;;;5.10;74.90;;;;;;5005188;28;20677;-63
2023/11/24 11:30:46;;;;;;;2.30;2.10;;;5.10;76.10;;;;;;5002745;28;20228;-64
2023/11/24 11:33:13;;;;;;;2.23;2.10;;;5.30;76.20;;;;;;4996745;28;20210;-63
2023/11/24 11:35:41;;;;;;;2.20;2.10;;;5.10;75.10;;;;;;5004311;28;20235;-63
2023/11/24 11:38:08;;;;;;;2.40;2.20;;;5.10;75.30;;;;;;5002511;28;20283;-62
2023/11/24 11:40:35;;;;;;;4.37;2.70;;;5.10;75.70;;;;;;4988080;28;20203;-62
2023/11/24 11:43:05;;;;;;;2.50;2.30;;;5.10;76.60;;;;;;4981818;28;20216;-64
2023/11/24 11:45:33;;;;;;;5.23;3.07;;;5.10;77.50;;;;;;5001019;28;20240;-66
2023/11/24 11:48:02;;;;;;;2.23;2.13;;;5.10;78.40;;;;;;5000834;28;22539;-63
2023/11/24 11:50:28;;;;;;;3.50;2.63;;;5.10;79.40;;;;;;5008393;28;20255;-64
2023/11/24 11:53:00;;;;;;;2.83;2.53;;;5.20;79.20;;;;;;5003837;28;20207;-63
2023/11/24 11:55:28;;;;;;;2.53;2.10;;;5.20;77.50;;;;;;5009298;28;20223;-64
2023/11/24 11:57:54;;;;;;;2.37;2.10;;;5.10;77.30;;;;;;4998871;28;20242;-63
2023/11/24 12:00:21;;;;;;;4.93;1.90;;;5.20;77.20;;;;;;4998360;28;20296;-63
2023/11/24 12:02:47;;;;;;;2.00;1.90;;;5.10;72.70;;;;;;5006445;28;20298;-63
2023/11/24 12:05:17;;;;;;;4.23;1.90;;;5.00;72.60;;;;;;5007822;28;20231;-63
2023/11/24 12:07:44;;;;;;;2.70;1.87;;;4.90;71.80;;;;;;5009412;28;20226;-64
2023/11/24 12:10:11;;;;;;;3.40;1.60;;;4.70;72.60;;;;;;5007713;28;20580;-64
2023/11/24 12:12:37;;;;;;;1.87;1.60;;;4.70;74.10;;;;;;5005914;28;20696;-64
2023/11/24 12:15:07;;;;;;;2.00;1.90;;;4.70;72.70;;;;;;5001215;28;20801;-63
2023/11/24 12:17:33;;;;;;;1.60;1.50;;;4.60;74.20;;;;;;4998947;28;20307;-64
2023/11/24 12:20:00;;;;;;;1.90;1.80;;;4.50;75.50;;;;;;5006038;28;20302;-65
2023/11/24 12:22:28;;;;;;;1.70;1.60;;;4.40;75.00;;;;;;4999818;28;20216;-64
2023/11/24 12:24:54;;;;;;;2.63;1.73;;;4.50;75.10;;;;;;5008437;28;20231;-64
2023/11/24 12:27:21;;;;;;;2.50;1.80;;;4.50;74.70;;;;;;5010606;28;20235;-64
2023/11/24 12:29:50;;;;;;;2.73;1.67;;;4.50;74.90;;;;;;5002920;28;20220;-64
2023/11/24 12:32:17;;;;;;;2.50;1.70;;;4.60;75.40;;;;;;5007985;28;20203;-65
2023/11/24 12:34:43;;;;;;;2.07;1.93;;;4.70;74.80;;;;;;5007978;28;20233;-65
2023/11/24 12:37:10;;;;;;;2.30;1.90;;;4.70;73.50;;;;;;5012919;28;20215;-65
2023/11/24 12:39:36;;;;;;;2.33;2.13;;;4.70;73.30;;;;;;5009834;28;20295;-63
2023/11/24 12:42:04;;;;;;;3.43;2.30;;;4.70;72.90;;;;;;5014604;28;20294;-63
2023/11/24 12:44:31;;;;;;;3.43;1.97;;;4.70;74.70;;;;;;5009922;28;20298;-62
2023/11/24 12:46:57;;;;;;;2.03;1.80;;;4.80;74.00;;;;;;5006397;28;20625;-63
2023/11/24 12:49:24;;;;;;;2.50;1.80;;;4.80;73.90;;;;;;5004013;28;20231;-64
2023/11/24 12:51:50;;;;;;;2.60;2.40;;;4.80;74.40;;;;;;5008060;28;20226;-62
2023/11/24 12:54:18;;;;;;;3.43;1.80;;;5.00;74.70;;;;;;5006971;28;20208;-64